Time;durP1;ratioP1;P1;durP2;ratioP2;P2;SDS_P1;SDS_P2;PMS_P1;PMS_P2;Temp;Humidity;BMP_temperature;BMP_pressure;BME280_temperature;BME280_humidity;BME280_pressure;Samples;Min_cycle;Max_cycle;Signal;HPM_P1;HPM_P2
2022/11/25 00:02:25;;;;;;;10.48;3.08;;;;;;;10.71;100.00;100825.28;5279545;28;20040;-68
2022/11/25 00:04:57;;;;;;;13.07;3.05;;;;;;;10.71;100.00;100827.09;5280154;28;20028;-68
2022/11/25 00:07:28;;;;;;;13.20;3.95;;;;;;;10.72;100.00;100828.78;5280114;28;20075;-68
2022/11/25 00:09:59;;;;;;;12.55;3.45;;;;;;;10.73;100.00;100829.59;5280016;28;20032;-68
2022/11/25 00:12:30;;;;;;;14.43;2.90;;;;;;;10.64;100.00;100823.31;5277244;28;20028;-68
2022/11/25 00:15:02;;;;;;;13.73;3.10;;;;;;;10.61;100.00;100815.75;5279857;28;20028;-68
2022/11/25 00:17:33;;;;;;;15.10;3.70;;;;;;;10.73;100.00;100813.88;5280064;28;20028;-69
2022/11/25 00:20:05;;;;;;;14.35;3.20;;;;;;;10.73;100.00;100809.47;5279609;28;20037;-68
2022/11/25 00:22:37;;;;;;;14.85;3.85;;;;;;;10.66;100.00;100805.69;5280262;28;20036;-68
2022/11/25 00:25:08;;;;;;;12.20;2.80;;;;;;;10.71;100.00;100817.44;5279058;28;20105;-68
2022/11/25 00:27:39;;;;;;;13.68;3.70;;;;;;;10.70;100.00;100805.31;5279350;28;20032;-68
2022/11/25 00:30:11;;;;;;;12.07;2.80;;;;;;;10.71;100.00;100811.38;5279476;28;20032;-68
2022/11/25 00:32:42;;;;;;;12.82;3.17;;;;;;;10.66;100.00;100810.94;5278675;28;20559;-69
2022/11/25 00:35:13;;;;;;;12.00;3.28;;;;;;;10.69;100.00;100802.81;5279561;28;20024;-68
2022/11/25 00:37:45;;;;;;;13.30;3.45;;;;;;;10.67;100.00;100795.06;5278231;28;20066;-68
2022/11/25 00:40:16;;;;;;;13.07;3.13;;;;;;;10.64;100.00;100803.19;5279827;28;20156;-68
2022/11/25 00:45:37;;;;;;;13.73;3.25;;;;;;;10.66;100.00;100787.38;5279407;28;20471;-68
2022/11/25 00:48:08;;;;;;;15.32;3.78;;;;;;;10.65;100.00;100793.56;5279673;28;20037;-68
2022/11/25 00:50:41;;;;;;;13.88;3.30;;;;;;;10.70;100.00;100788.75;5277607;28;20035;-68
2022/11/25 00:53:12;;;;;;;12.10;2.85;;;;;;;10.66;100.00;100792.59;5260836;28;20032;-68
2022/11/25 00:58:33;;;;;;;15.90;4.10;;;;;;;10.61;100.00;100795.63;5279797;28;20120;-68
2022/11/25 01:01:05;;;;;;;14.27;2.67;;;;;;;10.64;100.00;100805.00;5278271;28;20111;-68
2022/11/25 01:03:36;;;;;;;13.77;3.97;;;;;;;10.66;100.00;100805.69;5276979;28;20455;-68
2022/11/25 01:06:10;;;;;;;11.10;2.85;;;;;;;10.70;100.00;100805.31;5278583;28;20035;-68
2022/11/25 01:08:42;;;;;;;14.40;3.55;;;;;;;10.69;100.00;100808.06;5279253;28;20115;-69
2022/11/25 01:11:15;;;;;;;13.82;3.22;;;;;;;10.73;100.00;100803.41;5277679;28;20158;-68
2022/11/25 01:13:47;;;;;;;10.25;2.70;;;;;;;10.73;100.00;100804.22;5278974;28;20053;-68
2022/11/25 01:16:19;;;;;;;13.40;3.30;;;;;;;10.77;100.00;100802.16;5278836;28;20024;-69
2022/11/25 01:18:51;;;;;;;9.82;2.40;;;;;;;10.78;100.00;100806.44;5278393;28;20069;-68
2022/11/25 01:21:25;;;;;;;12.65;2.80;;;;;;;10.82;100.00;100805.22;5277992;28;20447;-68
2022/11/25 01:23:58;;;;;;;13.75;3.25;;;;;;;10.77;100.00;100810.84;5278270;28;20028;-68
2022/11/25 01:26:31;;;;;;;14.50;3.00;;;;;;;10.78;100.00;100804.63;5276937;28;20020;-69
2022/11/25 01:29:05;;;;;;;16.33;3.65;;;;;;;10.81;100.00;100816.66;5278643;28;20040;-68
2022/11/25 01:31:36;;;;;;;13.10;2.72;;;;;;;10.80;100.00;100826.31;5278410;28;20484;-69
2022/11/25 01:34:27;;;;;;;15.85;3.33;;;;;;;11.02;100.00;100824.44;5277404;28;20028;-68
2022/11/25 01:36:58;;;;;;;9.68;3.08;;;;;;;10.82;100.00;100827.00;5278737;28;20035;-68
2022/11/25 01:39:29;;;;;;;13.35;3.88;;;;;;;10.83;100.00;100828.66;5278285;28;20020;-69
2022/11/25 01:42:01;;;;;;;12.60;3.08;;;;;;;10.83;100.00;100830.44;5277149;28;20041;-68
2022/11/25 01:44:35;;;;;;;17.80;4.00;;;;;;;10.88;100.00;100834.34;5278317;28;20150;-68
2022/11/25 01:47:17;;;;;;;17.02;3.85;;;;;;;10.91;100.00;100838.47;5278208;28;20097;-68
2022/11/25 01:50:01;;;;;;;10.65;2.80;;;;;;;10.90;100.00;100845.50;5277809;28;20040;-69
2022/11/25 01:52:40;;;;;;;13.30;3.10;;;;;;;10.91;100.00;100843.72;5275857;28;20028;-69
2022/11/25 01:55:20;;;;;;;14.52;3.05;;;;;;;10.92;100.00;100851.47;5277972;28;20024;-69
2022/11/25 01:57:59;;;;;;;11.07;3.33;;;;;;;10.91;100.00;100854.19;5277471;28;20461;-68
2022/11/25 02:00:30;;;;;;;15.20;3.20;;;;;;;10.88;100.00;100854.50;5277346;28;20091;-68
2022/11/25 02:03:02;;;;;;;13.57;3.15;;;;;;;10.95;100.00;100861.69;5278042;28;20028;-68
2022/11/25 02:05:56;;;;;;;13.95;2.83;;;;;;;11.21;100.00;100866.44;5278256;28;20074;-68
2022/11/25 02:08:28;;;;;;;15.43;3.78;;;;;;;11.00;100.00;100876.19;5261359;28;20379;-69
2022/11/25 02:11:03;;;;;;;11.55;3.42;;;;;;;10.99;100.00;100878.00;5274191;28;20404;-68
2022/11/25 02:13:35;;;;;;;12.55;3.30;;;;;;;10.98;100.00;100878.91;5276168;28;20452;-68
2022/11/25 02:16:06;;;;;;;15.82;3.45;;;;;;;10.98;100.00;100878.09;5277055;28;20063;-68
2022/11/25 02:18:38;;;;;;;13.32;3.63;;;;;;;11.00;100.00;100882.25;5277591;28;20790;-68
2022/11/25 02:21:09;;;;;;;12.68;3.38;;;;;;;11.00;100.00;100886.69;5276767;28;20457;-69
2022/11/25 02:23:50;;;;;;;12.07;2.90;;;;;;;11.05;100.00;100890.53;5277714;28;20047;-68
2022/11/25 02:26:22;;;;;;;10.75;2.88;;;;;;;10.98;100.00;100881.53;5277548;28;20056;-69
2022/11/25 02:28:53;;;;;;;11.73;2.95;;;;;;;10.94;100.00;100894.09;5276850;28;20016;-68
2022/11/25 02:31:24;;;;;;;11.40;3.05;;;;;;;10.93;100.00;100896.84;5276348;28;20551;-69
2022/11/25 02:33:56;;;;;;;14.18;3.33;;;;;;;10.90;100.00;100890.06;5277571;28;20028;-69
2022/11/25 02:36:27;;;;;;;10.07;2.65;;;;;;;10.87;100.00;100894.75;5276014;28;20127;-69
2022/11/25 02:39:00;;;;;;;11.57;2.95;;;;;;;10.84;100.00;100897.66;5277217;28;20058;-69
2022/11/25 02:41:35;;;;;;;11.60;3.70;;;;;;;10.86;100.00;100908.81;5276816;28;20288;-69
2022/11/25 02:44:06;;;;;;;13.07;3.17;;;;;;;10.73;100.00;100911.66;5277761;28;20396;-69
2022/11/25 02:46:38;;;;;;;14.43;2.70;;;;;;;10.73;100.00;100919.50;5276919;28;20012;-69
2022/11/25 02:49:09;;;;;;;9.65;2.40;;;;;;;10.67;100.00;100897.25;5276794;28;20051;-69
2022/11/25 02:51:43;;;;;;;10.27;2.50;;;;;;;10.65;100.00;100896.56;5275963;28;20020;-69
2022/11/25 02:54:15;;;;;;;9.88;2.78;;;;;;;10.60;100.00;100895.28;5276324;28;20032;-69
2022/11/25 02:56:47;;;;;;;10.30;2.63;;;;;;;10.56;100.00;100879.00;5276562;28;20034;-69
2022/11/25 02:59:18;;;;;;;11.52;3.17;;;;;;;10.59;100.00;100851.72;5276854;28;20029;-69
2022/11/25 03:01:49;;;;;;;8.63;2.22;;;;;;;10.58;100.00;100843.03;5275610;28;20038;-69
2022/11/25 03:04:21;;;;;;;8.95;2.17;;;;;;;10.59;100.00;100817.66;5276392;28;20024;-69
2022/11/25 03:06:52;;;;;;;8.00;1.80;;;;;;;10.52;100.00;100817.34;5275321;28;20552;-69
2022/11/25 03:09:23;;;;;;;10.05;2.53;;;;;;;10.57;100.00;100825.66;5276286;28;20020;-68
2022/11/25 03:14:44;;;;;;;10.30;2.65;;;;;;;10.50;100.00;100849.88;5277557;28;20041;-68
2022/11/25 03:17:16;;;;;;;16.08;2.50;;;;;;;10.49;100.00;100867.38;5275825;28;20028;-69
2022/11/25 03:19:47;;;;;;;9.52;1.90;;;;;;;10.47;100.00;100872.75;5276311;28;20012;-68
2022/11/25 03:22:18;;;;;;;9.82;1.88;;;;;;;10.43;100.00;100862.66;5274921;28;20029;-69
2022/11/25 03:24:50;;;;;;;8.25;1.90;;;;;;;10.44;100.00;100848.59;5272885;28;20461;-68
2022/11/25 03:27:21;;;;;;;9.60;1.90;;;;;;;10.41;100.00;100854.91;5275575;28;20022;-69
2022/11/25 03:29:52;;;;;;;7.45;2.00;;;;;;;10.39;100.00;100858.66;5275251;28;20028;-69
2022/11/25 03:32:23;;;;;;;8.20;2.20;;;;;;;10.37;100.00;100877.09;5256274;28;20097;-69
2022/11/25 03:34:55;;;;;;;10.13;2.00;;;;;;;10.38;100.00;100898.88;5275159;28;20040;-68
2022/11/25 03:37:26;;;;;;;6.32;1.58;;;;;;;10.35;100.00;100899.16;5275798;28;20028;-69
2022/11/25 03:39:57;;;;;;;8.10;1.52;;;;;;;10.34;100.00;100897.47;5273743;28;20032;-68
2022/11/25 03:42:28;;;;;;;7.18;1.60;;;;;;;10.23;100.00;100891.31;5274141;28;20115;-68
2022/11/25 03:45:00;;;;;;;7.40;1.73;;;;;;;10.29;100.00;100905.69;5275279;28;20044;-69
2022/11/25 03:47:32;;;;;;;6.13;1.55;;;;;;;10.26;100.00;100903.34;5274520;28;20155;-69
2022/11/25 03:50:04;;;;;;;5.88;1.58;;;;;;;10.29;100.00;100907.50;5275292;28;20037;-68
2022/11/25 03:52:35;;;;;;;5.53;1.30;;;;;;;10.27;100.00;100907.63;5273730;28;20456;-68
2022/11/25 03:55:07;;;;;;;6.80;1.38;;;;;;;10.22;100.00;100917.59;5274650;28;20107;-69
2022/11/25 03:57:40;;;;;;;6.15;1.63;;;;;;;10.17;100.00;100911.94;5275873;28;20086;-68
2022/11/25 04:00:11;;;;;;;7.50;1.67;;;;;;;10.13;100.00;100918.38;5275415;28;20051;-68
2022/11/25 04:02:43;;;;;;;5.35;1.45;;;;;;;10.10;100.00;100905.53;5274804;28;20111;-69
2022/11/25 04:05:14;;;;;;;6.20;1.40;;;;;;;10.12;100.00;100924.56;5273831;28;20032;-68
2022/11/25 04:07:45;;;;;;;6.15;1.65;;;;;;;10.07;100.00;100935.38;5275024;28;20032;-69
2022/11/25 04:10:16;;;;;;;7.10;1.75;;;;;;;10.05;100.00;100929.47;5271408;28;20025;-69
2022/11/25 04:12:48;;;;;;;3.38;1.02;;;;;;;10.03;100.00;100936.59;5271965;28;20032;-69
2022/11/25 04:15:20;;;;;;;4.40;1.13;;;;;;;9.96;100.00;100927.56;5274449;28;20060;-68
2022/11/25 04:17:51;;;;;;;6.32;1.63;;;;;;;9.89;100.00;100935.13;5274538;28;20052;-68
2022/11/25 04:20:22;;;;;;;5.68;1.33;;;;;;;9.87;100.00;100941.41;5274989;28;20393;-68
2022/11/25 04:22:53;;;;;;;4.70;1.30;;;;;;;9.79;100.00;100936.78;5274673;28;20066;-68
2022/11/25 04:25:25;;;;;;;3.33;1.30;;;;;;;9.80;100.00;100951.53;5274986;28;20032;-68
2022/11/25 04:27:56;;;;;;;2.95;1.15;;;;;;;9.75;100.00;100953.69;5276204;28;20060;-68
2022/11/25 04:30:27;;;;;;;2.70;0.98;;;;;;;9.72;100.00;100959.16;5274859;28;20028;-69
2022/11/25 04:33:00;;;;;;;4.82;1.30;;;;;;;9.67;100.00;100961.31;5275484;28;20032;-68
2022/11/25 04:35:31;;;;;;;5.55;1.25;;;;;;;9.70;100.00;100969.75;5274062;28;20067;-69
2022/11/25 04:38:02;;;;;;;2.10;0.80;;;;;;;9.67;100.00;100983.09;5274231;28;20052;-69
2022/11/25 04:40:33;;;;;;;5.85;1.27;;;;;;;9.66;100.00;100985.81;5277579;28;20032;-69
2022/11/25 04:43:05;;;;;;;3.05;0.90;;;;;;;9.65;100.00;100984.16;5277861;28;21802;-69
2022/11/25 04:45:36;;;;;;;3.45;1.08;;;;;;;9.66;100.00;100985.81;5278792;28;20460;-69
2022/11/25 04:48:07;;;;;;;6.47;1.42;;;;;;;9.65;100.00;100978.91;5278379;28;20396;-69
2022/11/25 04:50:38;;;;;;;5.60;1.20;;;;;;;9.60;100.00;100975.84;5278322;28;20020;-69
2022/11/25 04:53:10;;;;;;;5.70;1.30;;;;;;;9.59;100.00;100964.53;5275721;28;20029;-69
2022/11/25 04:55:41;;;;;;;5.72;1.23;;;;;;;9.54;100.00;100971.91;5278166;28;20033;-69
2022/11/25 04:58:13;;;;;;;4.05;1.08;;;;;;;9.49;100.00;100985.34;5278752;28;20120;-69
2022/11/25 05:00:44;;;;;;;5.30;1.15;;;;;;;9.49;100.00;100994.97;5276888;28;20037;-69
2022/11/25 05:03:16;;;;;;;4.38;1.52;;;;;;;9.47;100.00;100989.88;5278331;28;20024;-69
2022/11/25 05:05:47;;;;;;;13.13;1.25;;;;;;;9.46;100.00;100998.66;5276299;28;20024;-69
2022/11/25 05:08:18;;;;;;;9.00;1.60;;;;;;;9.45;100.00;100999.63;5278527;28;20059;-69
2022/11/25 05:10:49;;;;;;;4.47;1.20;;;;;;;9.43;100.00;100996.31;5276212;28;20350;-69
2022/11/25 05:13:21;;;;;;;7.68;1.40;;;;;;;9.38;100.00;101002.81;5278675;28;20642;-69
2022/11/25 05:15:52;;;;;;;4.63;1.52;;;;;;;9.36;100.00;100999.50;5278727;28;20626;-69
2022/11/25 05:18:23;;;;;;;4.70;1.35;;;;;;;9.33;100.00;101000.56;5278958;28;20028;-69
2022/11/25 05:21:00;;;;;;;8.30;1.85;;;;;;;9.37;100.00;101002.00;5278539;28;20051;-69
2022/11/25 05:23:31;;;;;;;5.65;1.75;;;;;;;9.24;100.00;101015.19;5278910;28;20032;-69
2022/11/25 05:26:03;;;;;;;3.67;1.08;;;;;;;9.23;100.00;101012.66;5278766;28;20048;-70
2022/11/25 05:28:34;;;;;;;5.38;1.58;;;;;;;9.16;100.00;100994.00;5260370;28;20050;-70
2022/11/25 05:31:05;;;;;;;4.38;1.50;;;;;;;9.18;100.00;101002.56;5278214;28;20036;-69
2022/11/25 05:33:37;;;;;;;7.65;2.28;;;;;;;9.12;100.00;101008.25;5279222;28;20056;-69
2022/11/25 05:36:09;;;;;;;5.38;1.80;;;;;;;9.11;100.00;101011.00;5277832;28;20404;-70
2022/11/25 05:38:40;;;;;;;5.30;2.00;;;;;;;9.04;100.00;101009.78;5278492;28;20052;-69
2022/11/25 05:41:12;;;;;;;7.38;2.63;;;;;;;9.00;100.00;101015.25;5278103;28;20024;-70
2022/11/25 05:43:43;;;;;;;9.00;3.10;;;;;;;8.99;100.00;101007.53;5277739;28;20035;-70
2022/11/25 05:46:14;;;;;;;4.82;2.65;;;;;;;8.97;100.00;101023.31;5278092;28;20024;-69
2022/11/25 05:48:46;;;;;;;7.45;2.33;;;;;;;8.99;100.00;101023.22;5277625;28;20075;-69
2022/11/25 05:51:17;;;;;;;7.07;3.03;;;;;;;8.96;100.00;101029.50;5277267;28;20043;-70
2022/11/25 05:53:48;;;;;;;6.43;2.67;;;;;;;8.93;100.00;101031.50;5277357;28;20036;-69
2022/11/25 05:56:20;;;;;;;7.53;2.63;;;;;;;8.90;100.00;101036.94;5277620;28;20427;-69
2022/11/25 05:58:53;;;;;;;7.22;2.63;;;;;;;8.88;100.00;101037.06;5275996;28;20638;-69
2022/11/25 06:01:25;;;;;;;12.60;3.42;;;;;;;8.86;100.00;101035.53;5276862;28;20397;-69
2022/11/25 06:04:00;;;;;;;6.18;3.05;;;;;;;8.94;100.00;101036.63;5276705;28;20037;-69
2022/11/25 06:06:32;;;;;;;6.93;2.92;;;;;;;8.82;100.00;101031.47;5276253;28;20464;-69
2022/11/25 06:09:03;;;;;;;6.20;3.30;;;;;;;8.84;100.00;101035.66;5273378;28;20032;-69
2022/11/25 06:11:35;;;;;;;10.00;3.63;;;;;;;8.84;100.00;101040.03;5275800;28;20056;-69
2022/11/25 06:14:06;;;;;;;8.85;3.22;;;;;;;8.83;100.00;101039.22;5273834;28;20032;-69
2022/11/25 06:16:39;;;;;;;6.82;3.53;;;;;;;8.86;100.00;101046.78;5273858;28;20432;-69
2022/11/25 06:19:11;;;;;;;;;;;;;;;9.33;100.00;101055.47;5275465;28;20099;-69
2022/11/25 06:21:42;;;;;;;7.43;2.93;;;;;;;8.83;100.00;101054.06;5274946;28;20026;-69
2022/11/25 06:24:13;;;;;;;9.20;3.50;;;;;;;8.84;100.00;101061.78;5275097;28;20033;-68
2022/11/25 06:26:44;;;;;;;6.47;3.00;;;;;;;8.84;100.00;101060.94;5275343;28;20025;-69
2022/11/25 06:29:15;;;;;;;8.05;3.08;;;;;;;8.83;100.00;101060.13;5277373;28;20071;-69
2022/11/25 06:31:48;;;;;;;8.25;2.72;;;;;;;8.82;100.00;101065.44;5275904;28;20036;-69
2022/11/25 06:34:19;;;;;;;9.43;3.38;;;;;;;8.83;100.00;101077.56;5275208;28;20043;-68
2022/11/25 06:36:51;;;;;;;8.13;2.40;;;;;;;8.79;100.00;101074.34;5275660;28;20481;-69
2022/11/25 06:39:22;;;;;;;6.07;2.50;;;;;;;8.77;100.00;101082.28;5274350;28;20477;-69
2022/11/25 06:41:53;;;;;;;7.35;2.53;;;;;;;8.76;100.00;101080.63;5277748;28;20035;-69
2022/11/25 06:44:25;;;;;;;5.97;2.20;;;;;;;8.77;100.00;101087.50;5273123;28;20020;-69
2022/11/25 06:46:56;;;;;;;10.20;2.40;;;;;;;8.75;100.00;101092.03;5274537;28;20032;-69
2022/11/25 06:49:28;;;;;;;6.45;2.40;;;;;;;8.71;100.00;101092.34;5276479;28;20369;-69
2022/11/25 06:51:59;;;;;;;7.90;2.40;;;;;;;8.71;100.00;101092.34;5275818;28;21130;-69
2022/11/25 06:54:30;;;;;;;8.02;2.30;;;;;;;8.68;100.00;101089.97;5276942;28;20120;-68
2022/11/25 06:57:02;;;;;;;9.10;1.95;;;;;;;8.66;100.00;101087.44;5275031;28;20036;-69
2022/11/25 06:59:33;;;;;;;7.53;2.38;;;;;;;8.61;100.00;101093.97;5276353;28;20035;-69
2022/11/25 07:02:05;;;;;;;7.32;2.40;;;;;;;8.58;100.00;101105.47;5275757;28;20066;-69
2022/11/25 07:04:37;;;;;;;8.48;2.20;;;;;;;8.57;100.00;101095.13;5275457;28;20934;-69
2022/11/25 07:07:08;;;;;;;5.63;2.30;;;;;;;8.56;100.00;101103.91;5272420;28;20093;-69
2022/11/25 07:09:39;;;;;;;8.45;2.47;;;;;;;8.57;100.00;101111.63;5276161;28;20044;-69
2022/11/25 07:12:11;;;;;;;9.60;2.25;;;;;;;8.56;100.00;101109.97;5275263;28;20032;-69
2022/11/25 07:14:42;;;;;;;8.90;2.58;;;;;;;8.56;100.00;101114.34;5271466;28;20032;-69
2022/11/25 07:17:13;;;;;;;6.22;2.20;;;;;;;8.55;100.00;101123.97;5274850;28;20500;-69
2022/11/25 07:19:45;;;;;;;7.13;2.58;;;;;;;8.51;100.00;101132.97;5275115;28;20467;-69
2022/11/25 07:22:16;;;;;;;11.77;2.30;;;;;;;8.52;100.00;101135.47;5257821;28;20523;-69
2022/11/25 07:24:47;;;;;;;6.60;2.40;;;;;;;8.51;100.00;101139.00;5275665;28;20252;-69
2022/11/25 07:27:18;;;;;;;8.52;2.60;;;;;;;8.46;100.00;101142.91;5274158;28;20048;-68
2022/11/25 07:29:50;;;;;;;7.57;2.00;;;;;;;8.47;100.00;101148.00;5275628;28;20398;-69
2022/11/25 07:32:21;;;;;;;8.38;2.20;;;;;;;8.45;100.00;101149.91;5276616;28;20430;-69
2022/11/25 07:34:52;;;;;;;6.85;2.10;;;;;;;8.48;100.00;101151.44;5276566;28;20634;-69
2022/11/25 07:37:23;;;;;;;13.95;2.35;;;;;;;8.44;100.00;101160.44;5275565;28;20481;-69
2022/11/25 07:39:55;;;;;;;8.27;2.20;;;;;;;8.41;100.00;101164.13;5275643;28;20033;-68
2022/11/25 07:42:26;;;;;;;6.60;2.17;;;;;;;8.41;100.00;101168.50;5274923;28;20029;-69
2022/11/25 07:44:57;;;;;;;9.60;2.45;;;;;;;8.40;100.00;101183.31;5276536;28;20036;-69
2022/11/25 07:47:28;;;;;;;6.30;1.90;;;;;;;8.40;100.00;101187.72;5276054;28;20040;-69
2022/11/25 07:50:00;;;;;;;5.57;2.15;;;;;;;8.39;100.00;101189.50;5275790;28;20041;-69
2022/11/25 07:52:31;;;;;;;6.22;2.33;;;;;;;8.40;100.00;101195.53;5276671;28;20024;-69
2022/11/25 07:55:02;;;;;;;9.40;2.25;;;;;;;8.37;100.00;101204.44;5275369;28;20032;-69
2022/11/25 07:57:34;;;;;;;11.55;3.05;;;;;;;8.39;100.00;101197.31;5276314;28;20032;-69
2022/11/25 08:00:06;;;;;;;7.38;2.55;;;;;;;8.38;100.00;101200.06;5276177;28;20031;-69
2022/11/25 08:02:37;;;;;;;8.53;2.47;;;;;;;8.41;100.00;101205.03;5275527;28;20028;-69
2022/11/25 08:05:09;;;;;;;10.52;2.58;;;;;;;8.41;100.00;101215.47;5275665;28;20055;-69
2022/11/25 08:07:40;;;;;;;11.18;2.45;;;;;;;8.43;100.00;101219.66;5275894;28;20029;-69
2022/11/25 08:10:11;;;;;;;7.13;2.40;;;;;;;8.41;100.00;101221.56;5275772;28;20431;-69
2022/11/25 08:12:42;;;;;;;6.30;2.00;;;;;;;8.44;100.00;101220.50;5275857;28;20354;-69
2022/11/25 08:15:14;;;;;;;9.52;2.90;;;;;;;8.44;100.00;101229.16;5276942;28;20028;-69
2022/11/25 08:17:45;;;;;;;8.02;2.35;;;;;;;8.44;100.00;101226.56;5280015;28;20472;-69
2022/11/25 08:20:16;;;;;;;9.30;3.03;;;;;;;8.51;100.00;101233.03;5279211;28;20025;-69
2022/11/25 08:22:48;;;;;;;8.02;2.22;;;;;;;8.63;100.00;101247.00;5278992;28;20056;-69
2022/11/25 08:25:19;;;;;;;5.88;2.35;;;;;;;8.63;100.00;101249.59;5279536;28;20078;-69
2022/11/25 08:27:50;;;;;;;9.23;2.70;;;;;;;8.64;100.00;101246.06;5279941;28;20052;-69
2022/11/25 08:30:24;;;;;;;7.45;2.25;;;;;;;8.68;100.00;101246.69;5279835;28;20039;-69
2022/11/25 08:32:57;;;;;;;8.18;2.60;;;;;;;8.67;100.00;101245.84;5279216;28;20078;-69
2022/11/25 08:35:28;;;;;;;9.85;3.17;;;;;;;8.81;100.00;101250.09;5279452;28;20017;-69
2022/11/25 08:37:59;;;;;;;7.13;2.42;;;;;;;8.76;100.00;101254.81;5278896;28;20044;-69
2022/11/25 08:40:32;;;;;;;7.07;2.42;;;;;;;8.80;100.00;101252.81;5278454;28;20021;-69
2022/11/25 08:43:03;;;;;;;12.38;3.55;;;;;;;8.85;100.00;101243.69;5278690;28;20428;-69
2022/11/25 08:45:34;;;;;;;7.78;3.08;;;;;;;8.84;100.00;101247.25;5277106;28;20082;-69
2022/11/25 08:48:06;;;;;;;8.57;3.22;;;;;;;8.86;100.00;101247.16;5307160;22;20056;-69
2022/11/25 08:50:37;;;;;;;8.38;3.33;;;;;;;8.89;100.00;101252.16;5294113;28;20059;-69
2022/11/25 08:53:09;;;;;;;7.20;2.45;;;;;;;8.88;100.00;101253.94;5298362;28;20028;-69
2022/11/25 08:55:40;;;;;;;10.02;3.15;;;;;;;8.93;100.00;101258.84;5300465;28;21143;-69
2022/11/25 08:58:12;;;;;;;8.73;2.65;;;;;;;8.99;100.00;101259.25;5299521;28;20020;-69
2022/11/25 09:00:43;;;;;;;9.05;2.78;;;;;;;9.04;100.00;101263.31;5299377;28;20032;-69
2022/11/25 09:03:15;;;;;;;8.23;2.60;;;;;;;9.04;100.00;101265.91;5298929;28;20181;-69
2022/11/25 09:05:46;;;;;;;7.65;2.92;;;;;;;9.07;100.00;101270.94;5299852;28;20027;-69
2022/11/25 09:08:18;;;;;;;8.23;3.55;;;;;;;9.13;100.00;101278.31;5298947;28;20084;-69
2022/11/25 09:10:50;;;;;;;7.80;2.75;;;;;;;9.16;100.00;101272.88;5299207;28;20028;-69
2022/11/25 09:13:21;;;;;;;11.10;3.55;;;;;;;9.17;100.00;101278.00;5298860;28;20039;-69
2022/11/25 09:15:52;;;;;;;10.05;3.13;;;;;;;9.21;100.00;101283.84;5298514;28;20276;-69
2022/11/25 09:18:29;;;;;;;10.73;3.42;;;;;;;9.25;100.00;101291.34;5299086;28;20032;-69
2022/11/25 09:21:07;;;;;;;9.70;3.40;;;;;;;9.33;100.00;101296.03;5299704;28;20111;-69
2022/11/25 09:23:39;;;;;;;8.45;3.40;;;;;;;9.31;100.00;101294.47;5299783;28;20586;-69
2022/11/25 09:26:23;;;;;;;13.52;4.32;;;;;;;9.49;100.00;101301.81;5299041;28;20036;-69
2022/11/25 09:28:55;;;;;;;8.93;3.22;;;;;;;9.40;100.00;101299.88;5299942;28;20119;-69
2022/11/25 09:31:27;;;;;;;11.93;3.40;;;;;;;9.41;100.00;101301.53;5298696;28;20103;-69
2022/11/25 09:33:59;;;;;;;11.07;3.83;;;;;;;9.46;100.00;101309.88;5300241;28;20467;-69
2022/11/25 09:36:30;;;;;;;8.40;3.92;;;;;;;9.48;100.00;101305.38;5298691;28;20431;-69
2022/11/25 09:39:01;;;;;;;13.07;3.22;;;;;;;9.53;100.00;101317.28;5299421;28;21090;-69
2022/11/25 09:48:02;;;;;;;13.25;3.55;;;;;;;9.73;100.00;101338.41;5298016;28;20048;-69
2022/11/25 09:51:01;;;;;;;11.63;3.40;;;;;;;10.02;100.00;101338.03;5299426;28;20469;-69
2022/11/25 09:53:51;;;;;;;11.90;3.55;;;;;;;9.95;100.00;101347.31;5299085;28;20335;-69
2022/11/25 09:56:33;;;;;;;18.67;3.97;;;;;;;10.00;100.00;101334.72;5299847;28;20043;-69
2022/11/25 09:59:19;;;;;;;8.10;3.05;;;;;;;10.12;100.00;101340.81;5298910;28;20164;-69
2022/11/25 10:01:59;;;;;;;8.40;2.92;;;;;;;10.13;100.00;101348.56;5299295;28;20055;-69
2022/11/25 10:04:46;;;;;;;9.70;3.33;;;;;;;10.24;100.00;101348.59;5298779;28;20426;-69
2022/11/25 10:07:33;;;;;;;10.00;3.00;;;;;;;10.36;100.00;101348.66;5298794;28;20012;-69
2022/11/25 10:10:13;;;;;;;10.30;3.08;;;;;;;10.24;100.00;101347.75;5299118;28;20099;-69
2022/11/25 10:12:47;;;;;;;10.55;3.03;;;;;;;10.37;100.00;101352.91;5298477;28;20108;-70
2022/11/25 10:15:31;;;;;;;11.38;3.50;;;;;;;10.46;100.00;101366.16;5299186;28;20538;-69
2022/11/25 10:18:12;;;;;;;7.10;2.13;;;;;;;10.50;100.00;101369.38;5296794;28;20473;-69
2022/11/25 10:20:46;;;;;;;9.05;3.17;;;;;;;10.51;100.00;101378.09;5298359;28;20400;-69
2022/11/25 10:23:30;;;;;;;10.88;2.80;;;;;;;10.72;100.00;101384.31;5299101;28;20526;-69
2022/11/25 10:26:11;;;;;;;7.65;2.60;;;;;;;10.79;100.00;101389.91;5297383;28;20101;-69
2022/11/25 10:28:54;;;;;;;12.43;3.03;;;;;;;10.87;100.00;101388.38;5297851;28;20381;-69
2022/11/25 10:31:34;;;;;;;12.10;3.60;;;;;;;10.90;100.00;101388.09;5298101;28;20031;-69
2022/11/25 10:34:33;;;;;;;8.93;3.00;;;;;;;11.06;100.00;101398.25;5287954;28;20031;-69
2022/11/25 10:37:13;;;;;;;11.75;2.47;;;;;;;10.95;100.00;101395.66;5290264;28;20127;-69
2022/11/25 10:39:44;;;;;;;9.82;2.85;;;;;;;10.96;100.00;101402.53;5297864;28;20021;-69
2022/11/25 10:42:24;;;;;;;8.38;2.58;;;;;;;11.08;100.00;101403.38;5298044;28;20028;-69
2022/11/25 10:44:55;;;;;;;8.73;2.30;;;;;;;11.03;100.00;101405.53;5296329;28;20020;-69
2022/11/25 10:47:58;;;;;;;12.82;3.10;;;;;;;11.24;100.00;101403.00;5297704;28;20048;-69
2022/11/25 10:50:53;;;;;;;10.43;2.83;;;;;;;11.28;100.00;101423.63;5298244;28;20028;-69
2022/11/25 10:53:28;;;;;;;11.68;2.83;;;;;;;11.26;100.00;101419.47;5297390;28;20030;-69
2022/11/25 10:56:02;;;;;;;6.55;1.83;;;;;;;11.23;100.00;101417.91;5298015;28;20035;-69
2022/11/25 10:58:35;;;;;;;9.55;2.30;;;;;;;11.26;100.00;101422.94;5298109;28;20047;-69
2022/11/25 11:01:13;;;;;;;;;;;;;;;11.83;100.00;101418.41;5298131;28;20547;-69
2022/11/25 11:03:51;;;;;;;8.75;2.15;;;;;;;11.55;100.00;101425.84;5297717;28;20424;-69
2022/11/25 11:06:31;;;;;;;9.07;2.20;;;;;;;11.55;100.00;101427.63;5297854;28;20031;-70
2022/11/25 11:09:03;;;;;;;7.80;2.60;;;;;;;11.52;100.00;101431.38;5294392;28;20125;-69
2022/11/25 11:11:46;;;;;;;6.35;2.35;;;;;;;11.67;100.00;101439.81;5297251;28;20036;-69
2022/11/25 11:14:20;;;;;;;6.47;2.33;;;;;;;11.66;100.00;101443.38;5294655;28;20035;-70
2022/11/25 11:16:54;;;;;;;8.82;2.60;;;;;;;11.71;100.00;101443.84;5297352;28;20016;-69
2022/11/25 11:19:28;;;;;;;7.85;2.30;;;;;;;11.84;100.00;101446.34;5296818;28;20073;-69
2022/11/25 11:22:15;;;;;;;6.63;2.13;;;;;;;12.05;100.00;101454.31;5295975;28;20032;-69
2022/11/25 11:24:46;;;;;;;11.50;2.42;;;;;;;11.90;100.00;101456.38;5296313;28;20039;-70
2022/11/25 11:27:23;;;;;;;8.80;2.40;;;;;;;12.03;100.00;101448.31;5296775;28;20465;-69
2022/11/25 11:30:28;;;;;;;10.90;2.53;;;;;;;12.24;100.00;101456.25;5296253;28;20051;-69
2022/11/25 11:33:44;;;;;;;9.10;2.33;;;;;;;12.26;100.00;101457.78;5274214;28;20496;-70
2022/11/25 11:36:40;;;;;;;12.00;2.60;;;;;;;12.15;100.00;101468.31;5294449;28;20028;-69
2022/11/25 11:39:34;;;;;;;7.22;1.88;;;;;;;12.34;100.00;101465.03;5297048;28;20016;-70
2022/11/25 11:42:06;;;;;;;7.22;1.92;;;;;;;12.15;100.00;101473.59;5296966;28;20507;-70
2022/11/25 11:44:55;;;;;;;7.97;2.17;;;;;;;12.47;100.00;101485.91;5297508;28;20025;-69
2022/11/25 11:47:53;;;;;;;8.40;2.25;;;;;;;12.40;100.00;101485.56;5296777;28;20043;-70
2022/11/25 11:50:33;;;;;;;8.40;2.53;;;;;;;12.39;100.00;101489.16;5301266;28;20182;-70
2022/11/25 11:53:11;;;;;;;8.63;2.33;;;;;;;12.32;100.00;101487.97;5300845;28;20031;-69
2022/11/25 11:56:07;;;;;;;8.63;2.72;;;;;;;12.46;100.00;101489.47;5301264;28;20488;-70
2022/11/25 11:58:57;;;;;;;7.55;2.30;;;;;;;12.38;100.00;101482.22;5300635;28;20825;-70
2022/11/25 12:01:56;;;;;;;5.78;1.65;;;;;;;12.49;100.00;101487.41;5300108;28;20106;-69
2022/11/25 12:04:37;;;;;;;8.00;2.55;;;;;;;12.40;100.00;101491.66;5300957;28;20428;-69
2022/11/25 12:07:25;;;;;;;7.43;2.20;;;;;;;12.59;100.00;101490.97;5299808;28;20107;-70